Historyczne dane pomiarowe

Dodano dane terminowe – wersja testowa.

Dane z okresu 1951-2019

Wersja bazy: 1.34 [2019-03-16, lista zmian], aktualizacja planowana na 2019-04-15

Dane meteo z obszaru Polski uzyskane na podstawie danych udostępnionych przez Instytut Meteorologii i Gospodarki Wodnej – Państwowy Instytut Badawczy.

 

Wybierz Datę:    

       

TemperaturaWilgotnośćZachmurzenieWiatrCiśnienieWidzialnośćZjawiska
 Data    tng td wb rh cc ccl cl cm ch dir g1 g2 mslp ppp      
1999-06-20 00:00:00 14.8--- 13.5 14.092wxwxwx0wx--1015.7 993.6 0.0---wxw1
1999-06-20 01:00:00 14.4--- 13.4 13.894wxwxwx1wx--1015.5 993.4----wx
1999-06-20 02:00:00 14.0--- 13.5 13.797wxwxwx3wx--1015.5 993.3----wx
1999-06-20 03:00:00 13.8--- 13.3 13.597wxwxwx2wx--1015.3 993.1----wx
1999-06-20 04:00:00 16.8--- 16.5 16.698wxwxwx2wx--1014.8 992.9----wx
1999-06-20 05:00:00 19.8--- 17.0 18.084wxwx0wx--1014.5 992.8----wx
1999-06-20 06:00:00 21.2--- 16.5 18.275wxwx0wx--1014.3 992.7 0.0---wx
1999-06-20 07:00:00 23.0--- 16.0 18.565wxwx0wx--1014.1 992.6----wx
1999-06-20 08:00:00 23.5--- 16.2 18.864wxwx0wx--1013.9 992.5----wx
1999-06-20 09:00:00 24.4--- 17.8 20.067wxwxwx1wx--1013.7 992.3----wx
1999-06-20 10:00:00 25.0--- 18.4 20.667wxwxwx2wx--1013.3 992.0----wx
1999-06-20 11:00:00 25.0--- 19.1 21.070wxwxwx2wx--1013.0 991.7----wx
1999-06-20 12:00:00 24.8--- 17.5 20.064wxwxwx4wx--1012.2 990.9 0.0---wx
1999-06-20 13:00:00 23.2--- 19.0 20.477wxwxwx0wx--1011.4 990.0----wx
1999-06-20 14:00:00 21.6--- 17.1 18.776wxwxwx1wx--1011.4 989.9----wxw1
1999-06-20 15:00:00 17.6--- 16.2 16.791wxwxwx0wx--1011.2 989.4----wxw1
1999-06-20 16:00:00 21.2--- 17.2 18.678wxwxwx0wx--1010.4 988.9----wx
1999-06-20 17:00:00 21.4--- 17.4 18.878wxwxwx1wx--1009.9 988.4----wx
1999-06-20 18:00:00 21.2--- 19.7 20.291wxwxwx1wx--1009.5 988.0 14.5---wxw1
1999-06-20 19:00:00 19.7--- 18.2 18.791wxwxwx1wx--1009.8 988.2----wx
1999-06-20 20:00:00 18.9--- 17.8 18.293wxwxwx0wx--1009.9 988.2----wxw1
1999-06-20 21:00:00 17.4--- 16.6 16.995wxwxwx0wx--1009.6 987.8----wxw1
1999-06-20 22:00:00 17.0--- 16.0 16.494wxwxwx0wx--1009.2 987.4----wx
1999-06-20 23:00:00 16.4--- 15.9 16.197wxwxwx0wx--1008.6 986.8----wx

 

Źródłem pochodzenia danych jest Instytut Meteorologii i Gospodarki Wodnej – Państwowy Instytut Badawczy. Dane Instytutu Meteorologii i Gospodarki Wodnej – Państwowego Instytutu Badawczego zostały przetworzone.

Dane źródłowe można odnaleźć na stronie https://dane.imgw.pl